Time;durP1;ratioP1;P1;durP2;ratioP2;P2;SDS_P1;SDS_P2;PMS_P1;PMS_P2;Temp;Humidity;BMP_temperature;BMP_pressure;BME280_temperature;BME280_humidity;BME280_pressure;Samples;Min_cycle;Max_cycle;Signal;HPM_P1;HPM_P2
2022/01/01 00:01:10;;;;;;;68.05;57.80;;;9.40;99.90;;;;;;5003990;28;20026;-76
2022/01/01 00:03:36;;;;;;;64.75;53.22;;;9.40;99.90;;;;;;5020545;28;20050;-77
2022/01/01 00:06:01;;;;;;;63.25;51.63;;;9.50;99.90;;;;;;4993556;28;20037;-77
2022/01/01 00:08:27;;;;;;;69.50;53.10;;;9.50;99.90;;;;;;5016529;28;20018;-77
2022/01/01 00:10:54;;;;;;;59.10;48.25;;;9.60;99.90;;;;;;5020670;28;20061;-78
2022/01/01 00:13:20;;;;;;;65.50;51.92;;;9.60;99.90;;;;;;4994608;28;20021;-79
2022/01/01 00:15:45;;;;;;;72.32;56.03;;;9.60;99.90;;;;;;5013455;28;20080;-77
2022/01/01 00:18:11;;;;;;;72.57;56.50;;;9.60;99.90;;;;;;5014394;28;20467;-78
2022/01/01 00:20:36;;;;;;;55.53;46.05;;;9.70;99.90;;;;;;5002733;28;20379;-77
2022/01/01 00:23:02;;;;;;;70.05;53.28;;;9.70;99.90;;;;;;5005825;28;20041;-77
2022/01/01 00:25:28;;;;;;;60.13;46.78;;;9.70;99.90;;;;;;4993791;28;20073;-78
2022/01/01 00:27:53;;;;;;;66.38;54.45;;;9.70;99.90;;;;;;4996131;28;20093;-76
2022/01/01 00:30:19;;;;;;;79.88;63.38;;;9.80;99.90;;;;;;5006481;28;20030;-78
2022/01/01 00:32:45;;;;;;;76.15;57.60;;;9.70;99.90;;;;;;4980688;28;20018;-77
2022/01/01 00:35:10;;;;;;;55.38;41.65;;;9.80;99.90;;;;;;4987749;28;20034;-78
2022/01/01 00:37:36;;;;;;;50.90;35.65;;;9.80;99.90;;;;;;5013635;28;20562;-78
2022/01/01 00:40:02;;;;;;;45.33;35.67;;;9.80;99.90;;;;;;5013123;28;20041;-76
2022/01/01 00:42:28;;;;;;;44.10;34.63;;;9.80;99.90;;;;;;5025737;28;20064;-77
2022/01/01 00:44:54;;;;;;;48.20;37.08;;;9.90;99.90;;;;;;4991098;28;20406;-77
2022/01/01 00:47:19;;;;;;;50.15;38.78;;;9.90;99.90;;;;;;4983474;28;20057;-76
2022/01/01 00:49:45;;;;;;;52.35;40.13;;;9.90;99.90;;;;;;4999613;28;20031;-78
2022/01/01 00:52:10;;;;;;;57.97;42.30;;;10.00;99.90;;;;;;5004419;28;20046;-78
2022/01/01 00:54:36;;;;;;;52.85;40.70;;;10.00;99.90;;;;;;5006270;28;20026;-77
2022/01/01 00:57:02;;;;;;;46.92;37.90;;;10.00;99.90;;;;;;4988233;28;20018;-77
2022/01/01 00:59:29;;;;;;;48.83;39.83;;;10.00;99.90;;;;;;5006113;28;20077;-77
2022/01/01 01:01:54;;;;;;;51.05;39.22;;;10.00;99.90;;;;;;5005404;28;20069;-77
2022/01/01 01:04:20;;;;;;;54.92;40.92;;;10.00;99.90;;;;;;5013063;28;20030;-77
2022/01/01 01:06:46;;;;;;;50.78;38.13;;;10.00;99.90;;;;;;4989556;28;20033;-78
2022/01/01 01:09:11;;;;;;;57.95;41.90;;;9.90;99.90;;;;;;5006029;28;20041;-77
2022/01/01 01:11:43;;;;;;;55.42;42.47;;;10.00;99.90;;;;;;5010059;28;20021;-77
2022/01/01 01:14:10;;;;;;;52.28;40.85;;;10.00;99.90;;;;;;5003086;28;20482;-77
2022/01/01 01:16:36;;;;;;;52.42;40.40;;;10.00;99.90;;;;;;4993918;28;20132;-77
2022/01/01 01:19:02;;;;;;;52.80;37.05;;;10.00;99.90;;;;;;5005964;28;20026;-77
2022/01/01 01:21:28;;;;;;;49.70;37.92;;;10.00;99.90;;;;;;5006856;28;20109;-77
2022/01/01 01:23:54;;;;;;;41.33;32.67;;;10.00;99.90;;;;;;5002013;28;20371;-77
2022/01/01 01:26:20;;;;;;;36.90;27.42;;;10.00;99.90;;;;;;5004525;28;20034;-77
2022/01/01 01:28:49;;;;;;;36.10;26.13;;;10.10;99.90;;;;;;4987688;28;20027;-78
2022/01/01 01:31:15;;;;;;;65.65;50.47;;;10.10;99.90;;;;;;4976673;28;20072;-77
2022/01/01 01:33:42;;;;;;;49.22;37.45;;;10.20;99.90;;;;;;5009105;28;20057;-76
2022/01/01 01:36:07;;;;;;;47.75;34.78;;;10.20;99.90;;;;;;5020317;28;20023;-76
2022/01/01 01:38:36;;;;;;;50.25;34.33;;;10.40;99.90;;;;;;5011136;28;20030;-76
2022/01/01 01:41:06;;;;;;;43.63;32.40;;;10.30;99.90;;;;;;5011731;28;20026;-77
2022/01/01 01:43:32;;;;;;;38.97;30.33;;;10.20;99.90;;;;;;4994670;28;20022;-73
2022/01/01 01:46:03;;;;;;;42.20;33.60;;;10.20;99.90;;;;;;4991491;28;20050;-73
2022/01/01 01:48:29;;;;;;;;;;;10.20;99.90;;;;;;4985878;28;20061;-73
2022/01/01 01:50:56;;;;;;;50.28;37.17;;;10.20;99.90;;;;;;4992388;28;19921;-73
2022/01/01 01:53:21;;;;;;;51.53;36.97;;;10.10;99.90;;;;;;4988144;28;20080;-72
2022/01/01 01:55:47;;;;;;;49.40;35.85;;;10.10;99.90;;;;;;4992939;28;20026;-73
2022/01/01 01:58:13;;;;;;;47.22;35.67;;;10.10;99.90;;;;;;5004227;28;20106;-74
2022/01/01 02:01:09;;;;;;;48.33;37.35;;;10.20;99.90;;;;;;4997985;28;20105;-74
2022/01/01 02:03:33;;;;;;;47.20;37.60;;;10.20;99.90;;;;;;4989631;28;20113;-74
2022/01/01 02:05:59;;;;;;;50.35;39.50;;;10.30;99.90;;;;;;4995638;28;20109;-74
2022/01/01 02:08:26;;;;;;;52.55;38.78;;;10.20;99.90;;;;;;4977021;28;20030;-75
2022/01/01 02:10:52;;;;;;;56.05;39.92;;;10.10;99.90;;;;;;4992970;28;20046;-75
2022/01/01 02:13:59;;;;;;;56.80;39.70;;;10.10;99.90;;;;;;4992068;28;20066;-76
2022/01/01 02:18:53;;;;;;;55.00;42.50;;;10.00;99.90;;;;;;4991779;28;20045;-75
2022/01/01 02:21:20;;;;;;;56.57;44.70;;;10.00;99.90;;;;;;4996065;28;20029;-74
2022/01/01 02:23:46;;;;;;;56.20;44.55;;;9.90;99.90;;;;;;4984642;28;20405;-75
2022/01/01 02:26:15;;;;;;;59.45;43.47;;;9.90;99.90;;;;;;4973758;28;20145;-75
2022/01/01 02:28:42;;;;;;;50.85;40.55;;;9.90;99.90;;;;;;4988005;28;20034;-75
2022/01/01 02:31:09;;;;;;;50.25;39.17;;;9.90;99.90;;;;;;4991100;28;20050;-75
2022/01/01 02:33:36;;;;;;;60.20;41.80;;;9.90;99.90;;;;;;4989039;28;20026;-74
2022/01/01 02:36:02;;;;;;;53.13;40.45;;;10.00;99.90;;;;;;4994078;28;20022;-74
2022/01/01 02:38:28;;;;;;;57.50;42.47;;;10.00;99.90;;;;;;4990427;28;20022;-75
2022/01/01 02:40:53;;;;;;;59.60;42.95;;;10.00;99.90;;;;;;5002346;28;20028;-74
2022/01/01 02:43:19;;;;;;;55.35;41.78;;;10.00;99.90;;;;;;4991296;28;20038;-75
2022/01/01 02:45:45;;;;;;;54.47;43.75;;;10.00;99.90;;;;;;4992179;28;20033;-77
2022/01/01 02:48:13;;;;;;;58.00;42.90;;;9.90;99.90;;;;;;4975015;28;20467;-77
2022/01/01 02:50:38;;;;;;;52.38;42.40;;;9.80;99.90;;;;;;5002360;28;20034;-76
2022/01/01 02:53:14;;;;;;;52.67;41.17;;;9.80;99.90;;;;;;4980311;28;20030;-76
2022/01/01 02:55:41;;;;;;;54.00;40.92;;;9.80;99.90;;;;;;4982608;28;20030;-76
2022/01/01 02:58:08;;;;;;;52.45;39.47;;;9.80;99.90;;;;;;4998988;28;20034;-75
2022/01/01 03:00:34;;;;;;;47.00;35.65;;;9.70;99.90;;;;;;4996989;28;20403;-77
2022/01/01 03:02:59;;;;;;;54.95;38.40;;;9.80;99.90;;;;;;4996464;28;20030;-75
2022/01/01 03:05:25;;;;;;;51.80;42.53;;;9.80;99.90;;;;;;4986747;28;20030;-76
2022/01/01 03:07:51;;;;;;;61.33;42.40;;;10.10;99.90;;;;;;4999922;28;20021;-76
2022/01/01 03:10:16;;;;;;;52.85;41.15;;;10.10;99.90;;;;;;4983453;28;20029;-74
2022/01/01 03:12:42;;;;;;;55.55;40.05;;;10.00;99.90;;;;;;4988686;28;20038;-74
2022/01/01 03:15:08;;;;;;;52.72;40.47;;;10.00;99.90;;;;;;4979857;28;20051;-75
2022/01/01 03:17:33;;;;;;;53.47;39.35;;;9.90;99.90;;;;;;5003863;28;20052;-76
2022/01/01 03:19:59;;;;;;;52.08;40.50;;;9.90;99.90;;;;;;5004365;28;20034;-75
2022/01/01 03:22:24;;;;;;;51.28;39.70;;;10.00;99.90;;;;;;5015135;28;20033;-75
2022/01/01 03:24:50;;;;;;;50.85;38.15;;;10.20;99.90;;;;;;5026111;28;20448;-74
2022/01/01 03:27:16;;;;;;;49.40;38.22;;;10.20;99.90;;;;;;5003219;28;20055;-76
2022/01/01 03:29:41;;;;;;;50.45;36.28;;;10.00;99.90;;;;;;4978719;28;20129;-76
2022/01/01 03:32:07;;;;;;;53.33;38.30;;;10.00;99.90;;;;;;4978697;28;20109;-75
2022/01/01 03:34:33;;;;;;;50.97;39.10;;;9.90;99.90;;;;;;4989424;28;20037;-76
2022/01/01 03:36:58;;;;;;;50.30;39.10;;;9.80;99.90;;;;;;4990774;28;20553;-76
2022/01/01 03:39:26;;;;;;;52.63;38.75;;;9.70;99.90;;;;;;4994501;28;20022;-76
2022/01/01 03:41:52;;;;;;;49.65;38.53;;;9.70;99.90;;;;;;5002918;28;20116;-76
2022/01/01 03:44:18;;;;;;;58.95;41.25;;;9.70;99.90;;;;;;4995564;28;20489;-76
2022/01/01 03:46:43;;;;;;;56.08;40.00;;;9.60;99.90;;;;;;4995895;28;20030;-76
2022/01/01 03:49:09;;;;;;;54.47;39.17;;;9.60;99.90;;;;;;4994479;28;20034;-76
2022/01/01 03:51:34;;;;;;;56.67;40.80;;;9.60;99.90;;;;;;4978478;28;20027;-76
2022/01/01 03:54:00;;;;;;;65.22;48.13;;;9.60;99.90;;;;;;4997830;28;20037;-76
2022/01/01 03:56:26;;;;;;;66.55;48.80;;;9.60;99.90;;;;;;4995318;28;20104;-76
2022/01/01 03:58:51;;;;;;;60.40;43.78;;;9.60;99.90;;;;;;4994618;28;20023;-76
2022/01/01 04:01:17;;;;;;;57.00;43.33;;;9.60;99.90;;;;;;4976974;28;20023;-76
2022/01/01 04:03:43;;;;;;;57.70;42.22;;;9.60;99.90;;;;;;4989971;28;20054;-76
2022/01/01 04:06:09;;;;;;;59.75;45.80;;;9.70;99.90;;;;;;4974391;28;20073;-75
2022/01/01 04:08:35;;;;;;;62.28;44.38;;;9.70;99.90;;;;;;4975995;28;20026;-76
2022/01/01 04:11:00;;;;;;;52.05;39.15;;;9.80;99.90;;;;;;4996196;28;20042;-76
2022/01/01 04:13:26;;;;;;;48.80;36.70;;;10.00;99.90;;;;;;4993194;28;20084;-75
2022/01/01 04:15:52;;;;;;;45.78;36.95;;;10.10;99.90;;;;;;4992843;28;20473;-77
2022/01/01 04:18:27;;;;;;;49.40;37.47;;;10.30;99.90;;;;;;4994779;28;20022;-76
2022/01/01 04:20:52;;;;;;;50.85;36.55;;;10.20;99.90;;;;;;4988417;28;20037;-76
2022/01/01 04:23:18;;;;;;;52.40;38.72;;;10.00;99.90;;;;;;4990387;28;20026;-76
2022/01/01 04:25:44;;;;;;;43.42;34.92;;;9.80;99.90;;;;;;4994281;28;20022;-76
2022/01/01 04:28:10;;;;;;;43.92;34.17;;;9.70;99.90;;;;;;4986129;28;20035;-77
2022/01/01 04:30:36;;;;;;;41.45;32.45;;;9.70;99.90;;;;;;4996934;28;20037;-75
2022/01/01 04:33:01;;;;;;;47.58;34.70;;;9.70;99.90;;;;;;4997568;28;20030;-76
2022/01/01 04:35:27;;;;;;;42.78;32.60;;;9.70;99.90;;;;;;4993082;28;20029;-76
2022/01/01 04:37:53;;;;;;;38.75;30.02;;;9.70;99.90;;;;;;4976036;28;20037;-76
2022/01/01 04:40:19;;;;;;;38.50;29.20;;;9.70;99.90;;;;;;4975916;28;20025;-75
2022/01/01 04:42:44;;;;;;;37.33;26.25;;;9.60;99.90;;;;;;4993083;28;20387;-76
2022/01/01 04:45:11;;;;;;;33.10;27.67;;;9.60;99.90;;;;;;4992130;28;20030;-76
2022/01/01 04:47:36;;;;;;;39.97;27.33;;;9.50;99.90;;;;;;4993310;28;20053;-76
2022/01/01 04:50:04;;;;;;;41.25;28.75;;;9.50;99.90;;;;;;4988503;28;20065;-76
2022/01/01 04:52:30;;;;;;;33.47;25.83;;;9.40;99.90;;;;;;4994495;28;20049;-76
2022/01/01 04:54:56;;;;;;;25.80;21.17;;;9.30;99.90;;;;;;4992215;28;20541;-76
2022/01/01 04:57:26;;;;;;;27.88;22.10;;;9.30;99.90;;;;;;4976332;28;20030;-76
2022/01/01 04:59:52;;;;;;;27.83;21.65;;;9.20;99.90;;;;;;4978274;28;20120;-76
2022/01/01 05:02:17;;;;;;;28.58;21.45;;;9.20;99.90;;;;;;4992185;28;20055;-76
2022/01/01 05:04:43;;;;;;;43.97;28.10;;;9.10;99.90;;;;;;4989665;28;20026;-76
2022/01/01 05:07:09;;;;;;;38.38;26.60;;;9.00;99.90;;;;;;4992573;28;20022;-76
2022/01/01 05:09:34;;;;;;;36.08;26.67;;;8.90;99.90;;;;;;4992923;28;20113;-76
2022/01/01 05:12:00;;;;;;;40.65;27.80;;;8.80;99.90;;;;;;4976682;28;20419;-76
2022/01/01 05:14:26;;;;;;;45.55;33.05;;;8.70;99.90;;;;;;4974778;28;20117;-77
2022/01/01 05:16:52;;;;;;;42.17;30.40;;;8.60;99.90;;;;;;4990750;28;20393;-76
2022/01/01 05:19:18;;;;;;;28.52;23.20;;;8.50;99.90;;;;;;4994558;28;20018;-77
2022/01/01 05:21:44;;;;;;;43.88;31.70;;;8.40;99.90;;;;;;4992024;28;20453;-77
2022/01/01 05:24:12;;;;;;;31.10;24.92;;;8.40;99.90;;;;;;4993582;28;20150;-76
2022/01/01 05:26:38;;;;;;;32.10;25.13;;;8.40;99.90;;;;;;4973453;28;20042;-75
2022/01/01 05:29:03;;;;;;;36.45;27.10;;;8.30;99.90;;;;;;4989238;28;20101;-76
2022/01/01 05:31:33;;;;;;;36.08;24.98;;;8.30;99.90;;;;;;4994476;28;20038;-76
2022/01/01 05:33:59;;;;;;;37.63;26.95;;;8.30;99.90;;;;;;5001840;28;20099;-74
2022/01/01 05:36:24;;;;;;;33.45;25.13;;;8.30;99.90;;;;;;5006299;28;20030;-76
2022/01/01 05:38:50;;;;;;;33.00;22.77;;;8.30;99.90;;;;;;4974977;28;20557;-76
2022/01/01 05:41:15;;;;;;;28.85;20.73;;;8.20;99.90;;;;;;4974604;28;20386;-76
2022/01/01 05:43:41;;;;;;;32.67;22.45;;;8.20;99.90;;;;;;4992554;28;20038;-76
2022/01/01 05:46:06;;;;;;;31.73;22.77;;;8.10;99.90;;;;;;4991488;28;20038;-76
2022/01/01 05:48:32;;;;;;;29.85;23.90;;;8.10;99.90;;;;;;4991737;28;20034;-75
2022/01/01 05:50:58;;;;;;;32.78;23.67;;;8.00;99.90;;;;;;4992284;28;20421;-76
2022/01/01 05:53:24;;;;;;;29.38;23.58;;;8.00;99.90;;;;;;5007914;28;20034;-74
2022/01/01 05:55:50;;;;;;;31.02;25.23;;;8.00;99.90;;;;;;5011190;28;20093;-75
2022/01/01 05:58:16;;;;;;;34.47;25.30;;;8.00;99.90;;;;;;5014901;28;20123;-75
2022/01/01 06:00:42;;;;;;;32.70;23.95;;;8.10;99.90;;;;;;4993149;28;20134;-77
2022/01/01 06:03:08;;;;;;;36.05;25.25;;;8.10;99.90;;;;;;4993269;28;20062;-76
2022/01/01 06:05:34;;;;;;;29.65;22.25;;;8.20;99.90;;;;;;5010416;28;20018;-75
2022/01/01 06:08:00;;;;;;;31.92;24.27;;;8.20;99.90;;;;;;5006130;28;20030;-75
2022/01/01 06:10:26;;;;;;;27.77;21.00;;;8.20;99.90;;;;;;4981552;28;20026;-76
2022/01/01 06:12:53;;;;;;;25.17;20.55;;;8.30;99.90;;;;;;5000253;28;20018;-76
2022/01/01 06:15:19;;;;;;;29.77;22.13;;;8.30;99.90;;;;;;4994913;28;20041;-77
2022/01/01 06:17:45;;;;;;;32.05;22.85;;;8.40;99.90;;;;;;4992373;28;20429;-76
2022/01/01 06:20:11;;;;;;;27.45;21.55;;;8.40;99.90;;;;;;4993818;28;20022;-76
2022/01/01 06:22:37;;;;;;;28.70;21.50;;;8.50;99.90;;;;;;4991465;28;20534;-76
2022/01/01 06:25:03;;;;;;;29.95;22.40;;;8.50;99.90;;;;;;4989547;28;20054;-76
2022/01/01 06:27:29;;;;;;;29.35;23.73;;;8.50;99.90;;;;;;4984505;28;20129;-77
2022/01/01 06:29:54;;;;;;;28.95;23.63;;;8.60;99.90;;;;;;4995208;28;20030;-77
2022/01/01 06:32:20;;;;;;;31.27;23.73;;;8.60;99.90;;;;;;4975565;28;20073;-76
2022/01/01 06:34:46;;;;;;;26.65;22.15;;;8.60;99.90;;;;;;5002046;28;20108;-75
2022/01/01 06:37:11;;;;;;;31.10;22.75;;;8.60;99.90;;;;;;4982440;28;20030;-75
2022/01/01 06:39:37;;;;;;;29.27;20.70;;;8.60;99.90;;;;;;5001225;28;20046;-75
2022/01/01 06:42:03;;;;;;;24.58;18.77;;;8.60;99.90;;;;;;5004078;28;20030;-76
2022/01/01 06:44:28;;;;;;;18.25;16.20;;;8.70;99.90;;;;;;4986480;28;20375;-76
2022/01/01 06:46:54;;;;;;;23.60;17.00;;;8.80;99.90;;;;;;4993024;28;20026;-77
2022/01/01 06:49:19;;;;;;;24.45;17.33;;;9.00;99.90;;;;;;4995370;28;20026;-76
2022/01/01 06:51:45;;;;;;;18.38;15.73;;;9.00;99.90;;;;;;5002790;28;20509;-76
2022/01/01 06:54:11;;;;;;;20.30;14.70;;;9.10;99.90;;;;;;4996628;28;20034;-76
2022/01/01 06:56:36;;;;;;;18.23;14.10;;;9.00;99.90;;;;;;5001195;28;20033;-76
2022/01/01 06:59:02;;;;;;;19.20;14.88;;;8.90;99.90;;;;;;5007008;28;20556;-75
2022/01/01 07:01:28;;;;;;;18.13;13.45;;;8.90;99.90;;;;;;4988226;28;20049;-77
2022/01/01 07:03:54;;;;;;;18.05;14.70;;;8.90;99.90;;;;;;4979775;28;20030;-77
2022/01/01 07:06:19;;;;;;;19.33;12.93;;;8.90;99.90;;;;;;4977391;28;20030;-77
2022/01/01 07:08:45;;;;;;;9.27;7.80;;;8.80;99.90;;;;;;4975227;28;20081;-76
2022/01/01 07:11:11;;;;;;;12.15;7.63;;;8.90;99.90;;;;;;4995531;28;20417;-76
2022/01/01 07:13:38;;;;;;;8.88;6.80;;;8.90;99.90;;;;;;4995139;28;20037;-77
2022/01/01 07:16:04;;;;;;;11.45;7.00;;;9.00;99.90;;;;;;4994171;28;20049;-76
2022/01/01 07:18:30;;;;;;;12.82;10.13;;;9.10;99.90;;;;;;4994740;28;20076;-76
2022/01/01 07:20:55;;;;;;;10.68;9.20;;;9.00;99.90;;;;;;4994071;28;20478;-76
2022/01/01 07:23:21;;;;;;;14.90;11.95;;;9.00;99.90;;;;;;4993300;28;20612;-75
2022/01/01 07:25:46;;;;;;;11.27;9.90;;;9.10;99.90;;;;;;4992972;28;20027;-75
2022/01/01 07:28:14;;;;;;;6.03;4.85;;;9.10;99.90;;;;;;4995268;28;20036;-76
2022/01/01 07:30:40;;;;;;;11.52;8.20;;;9.20;99.90;;;;;;4977234;28;20030;-76
2022/01/01 07:33:06;;;;;;;13.82;9.85;;;9.50;99.90;;;;;;4994537;28;20027;-75
2022/01/01 07:35:36;;;;;;;9.98;8.63;;;9.70;99.90;;;;;;4994638;28;20100;-76
2022/01/01 07:38:01;;;;;;;11.75;10.55;;;9.70;99.90;;;;;;4989590;28;20026;-76
2022/01/01 07:40:27;;;;;;;14.00;9.57;;;9.70;99.90;;;;;;4993460;28;20038;-75
2022/01/01 07:42:52;;;;;;;13.55;10.40;;;9.50;99.90;;;;;;4992076;28;20018;-75
2022/01/01 07:45:18;;;;;;;12.82;10.68;;;9.40;99.90;;;;;;5001068;28;20076;-77
2022/01/01 07:47:43;;;;;;;11.85;10.02;;;9.30;99.90;;;;;;4995187;28;20033;-76
2022/01/01 07:50:10;;;;;;;17.17;11.20;;;9.40;99.90;;;;;;4994003;28;20050;-76
2022/01/01 07:52:35;;;;;;;12.52;10.80;;;9.30;99.90;;;;;;4981205;28;20030;-76
2022/01/01 07:55:01;;;;;;;13.73;10.32;;;9.30;99.90;;;;;;4994449;28;20034;-75
2022/01/01 07:57:26;;;;;;;12.55;10.93;;;9.40;99.90;;;;;;4994374;28;20026;-76
2022/01/01 07:59:52;;;;;;;12.82;10.85;;;9.40;99.90;;;;;;4992693;28;20026;-75
2022/01/01 08:02:17;;;;;;;13.15;11.05;;;9.40;99.90;;;;;;4976168;28;20117;-76
2022/01/01 08:04:43;;;;;;;10.27;9.20;;;9.50;99.90;;;;;;4995890;28;20034;-76
2022/01/01 08:07:08;;;;;;;12.50;10.77;;;9.80;99.90;;;;;;4992492;28;20042;-77
2022/01/01 08:09:38;;;;;;;12.75;10.32;;;9.90;99.90;;;;;;4992216;28;20059;-76
2022/01/01 08:12:05;;;;;;;11.43;10.07;;;10.00;99.90;;;;;;4995253;28;20034;-77
2022/01/01 08:14:30;;;;;;;12.07;9.68;;;10.00;99.90;;;;;;5002061;28;20513;-77
2022/01/01 08:16:57;;;;;;;12.95;11.02;;;9.90;99.90;;;;;;4981333;28;20030;-75
2022/01/01 08:19:23;;;;;;;13.32;10.50;;;9.70;99.90;;;;;;5014692;28;20029;-75
2022/01/01 08:21:49;;;;;;;10.88;9.15;;;9.70;99.90;;;;;;4998306;28;20034;-76
2022/01/01 08:24:14;;;;;;;11.82;9.35;;;9.70;99.90;;;;;;4992385;28;20085;-76
2022/01/01 08:26:40;;;;;;;12.35;8.50;;;9.70;99.90;;;;;;4992617;28;20574;-75
2022/01/01 08:29:05;;;;;;;9.75;8.75;;;9.60;99.90;;;;;;4993162;28;20026;-75
2022/01/01 08:31:31;;;;;;;12.43;9.15;;;9.60;99.90;;;;;;4976393;28;20109;-76
2022/01/01 08:33:56;;;;;;;11.13;8.65;;;9.70;99.90;;;;;;4990626;28;20073;-74
2022/01/01 08:36:22;;;;;;;13.30;10.25;;;9.60;99.90;;;;;;4994427;28;20069;-74
2022/01/01 08:38:48;;;;;;;10.77;8.40;;;9.60;99.90;;;;;;4993672;28;20089;-76
2022/01/01 08:41:14;;;;;;;10.55;9.18;;;9.70;99.90;;;;;;4993334;28;20019;-77
2022/01/01 08:43:39;;;;;;;12.38;10.10;;;9.60;99.90;;;;;;4980402;28;20088;-76
2022/01/01 08:46:07;;;;;;;10.30;8.88;;;9.60;99.90;;;;;;4992294;28;20030;-76
2022/01/01 08:48:33;;;;;;;11.93;9.32;;;9.70;99.90;;;;;;4990076;28;20003;-76
2022/01/01 08:50:58;;;;;;;10.70;8.85;;;9.90;99.90;;;;;;5016653;28;20042;-76
2022/01/01 08:53:24;;;;;;;12.15;8.68;;;9.90;99.90;;;;;;4976691;28;20027;-76
2022/01/01 08:55:49;;;;;;;13.35;10.90;;;10.10;99.90;;;;;;5034679;23;20044;-75
2022/01/01 08:58:15;;;;;;;14.55;10.93;;;10.10;99.90;;;;;;5062855;28;20086;-74
2022/01/01 09:00:41;;;;;;;10.77;8.15;;;10.00;99.90;;;;;;5072558;28;20130;-74
2022/01/01 09:03:06;;;;;;;9.25;8.05;;;10.00;99.90;;;;;;5066435;28;20025;-73
2022/01/01 09:05:32;;;;;;;8.13;7.00;;;9.90;99.90;;;;;;5036359;28;20109;-75
2022/01/01 09:07:58;;;;;;;10.77;8.45;;;10.00;99.90;;;;;;5035177;28;20025;-74
2022/01/01 09:10:23;;;;;;;8.93;7.97;;;10.20;99.90;;;;;;5052441;28;20068;-75
2022/01/01 09:12:49;;;;;;;10.50;8.93;;;10.50;99.90;;;;;;5031307;28;20068;-75
2022/01/01 09:15:15;;;;;;;9.48;8.23;;;10.50;99.90;;;;;;5050056;28;20029;-76
2022/01/01 09:17:40;;;;;;;12.60;8.95;;;10.50;99.90;;;;;;5067160;28;20036;-75
2022/01/01 09:20:06;;;;;;;10.32;9.05;;;10.50;99.90;;;;;;5065793;28;20453;-74
2022/01/01 09:22:32;;;;;;;11.48;8.57;;;10.40;99.90;;;;;;5069090;28;20029;-73
2022/01/01 09:24:58;;;;;;;12.23;8.82;;;10.40;99.90;;;;;;5071183;28;20040;-75
2022/01/01 09:27:24;;;;;;;10.60;9.45;;;10.60;99.90;;;;;;5060916;28;20024;-74
2022/01/01 09:29:49;;;;;;;9.13;8.18;;;10.80;99.90;;;;;;5051024;28;20039;-74
2022/01/01 09:32:15;;;;;;;10.90;8.93;;;10.90;99.90;;;;;;5050507;28;20037;-75
2022/01/01 09:34:40;;;;;;;10.05;8.63;;;10.90;99.90;;;;;;5048974;28;20174;-76
2022/01/01 09:37:06;;;;;;;10.77;8.95;;;10.80;99.90;;;;;;5050863;28;20070;-75
2022/01/01 09:39:31;;;;;;;11.57;8.55;;;10.70;99.90;;;;;;5052335;28;20017;-75
2022/01/01 09:41:57;;;;;;;12.65;9.45;;;10.90;99.90;;;;;;5039042;28;20090;-74
2022/01/01 09:44:24;;;;;;;10.20;9.10;;;11.00;99.90;;;;;;5055746;28;20555;-74
2022/01/01 09:46:50;;;;;;;9.88;8.55;;;11.00;99.90;;;;;;5051142;28;20052;-76
2022/01/01 09:49:17;;;;;;;10.75;8.82;;;10.90;99.90;;;;;;5036755;28;20118;-74
2022/01/01 09:51:44;;;;;;;10.15;8.93;;;11.00;99.90;;;;;;5055868;28;20028;-75
2022/01/01 09:54:10;;;;;;;11.75;8.98;;;11.10;99.90;;;;;;5056110;28;20447;-75
2022/01/01 09:56:36;;;;;;;11.07;8.93;;;11.10;99.90;;;;;;5049805;28;20025;-74
2022/01/01 09:59:02;;;;;;;8.88;7.63;;;11.30;99.90;;;;;;5050386;28;20549;-74
2022/01/01 10:01:27;;;;;;;10.15;8.50;;;11.30;99.90;;;;;;5053039;28;20369;-74
2022/01/01 10:03:53;;;;;;;9.65;8.07;;;11.40;99.90;;;;;;5052267;28;20112;-75
2022/01/01 10:06:23;;;;;;;9.68;7.85;;;11.50;99.90;;;;;;5050051;28;20032;-76
2022/01/01 10:08:55;;;;;;;11.07;8.90;;;11.50;99.90;;;;;;5038642;28;20082;-75
2022/01/01 10:11:21;;;;;;;8.57;7.40;;;11.50;99.90;;;;;;5048811;28;20036;-75
2022/01/01 10:13:47;;;;;;;10.90;8.23;;;11.50;99.90;;;;;;5042328;28;20029;-77
2022/01/01 10:16:14;;;;;;;11.48;7.97;;;11.50;99.90;;;;;;5051692;28;20029;-75
2022/01/01 10:18:42;;;;;;;8.35;7.50;;;11.50;99.90;;;;;;5043913;28;20013;-75
2022/01/01 10:21:12;;;;;;;10.60;8.02;;;11.50;99.90;;;;;;5055872;28;20098;-73
2022/01/01 10:23:43;;;;;;;9.43;7.43;;;11.50;99.90;;;;;;5058186;28;20025;-74
2022/01/01 10:29:03;;;;;;;10.10;7.45;;;11.70;99.90;;;;;;5061591;28;20051;-75
2022/01/01 10:31:28;;;;;;;7.90;6.90;;;11.70;99.90;;;;;;5058745;28;20476;-75
2022/01/01 10:33:54;;;;;;;9.90;7.47;;;11.80;99.90;;;;;;5059019;28;20115;-73
2022/01/01 10:36:22;;;;;;;8.50;6.88;;;11.90;99.90;;;;;;5056371;28;20147;-73
2022/01/01 10:38:48;;;;;;;7.38;6.57;;;12.00;99.90;;;;;;5060140;28;20020;-74
2022/01/01 10:41:16;;;;;;;7.65;6.75;;;12.10;99.90;;;;;;5070601;28;20021;-73
2022/01/01 10:43:43;;;;;;;7.68;6.32;;;12.20;99.90;;;;;;5048340;28;20047;-74
2022/01/01 10:46:16;;;;;;;6.80;6.03;;;12.30;99.90;;;;;;5057642;28;20499;-75
2022/01/01 10:51:12;;;;;;;8.18;5.53;;;12.50;99.90;;;;;;5030765;28;20057;-76
2022/01/01 10:53:37;;;;;;;5.95;5.35;;;12.60;99.90;;;;;;5049420;28;20052;-76
2022/01/01 10:56:15;;;;;;;6.55;5.85;;;12.60;99.90;;;;;;5051844;28;20079;-76
2022/01/01 10:58:42;;;;;;;7.28;6.28;;;12.70;99.90;;;;;;5051046;28;20361;-75
2022/01/01 11:01:08;;;;;;;8.20;5.70;;;12.70;99.90;;;;;;5052061;28;20017;-74
2022/01/01 11:03:37;;;;;;;8.13;6.53;;;12.80;99.90;;;;;;5052537;28;20104;-76
2022/01/01 11:06:12;;;;;;;9.13;7.25;;;12.80;99.90;;;;;;5050738;28;20087;-73
2022/01/01 11:08:40;;;;;;;11.63;8.25;;;12.80;99.90;;;;;;5051122;28;20039;-74
2022/01/01 11:11:06;;;;;;;9.23;7.57;;;12.80;99.90;;;;;;5049855;28;20021;-73
2022/01/01 11:13:32;;;;;;;9.32;8.32;;;12.80;99.90;;;;;;5055040;28;20074;-73
2022/01/01 11:15:58;;;;;;;10.00;8.10;;;12.80;99.90;;;;;;5048974;28;20033;-74
2022/01/01 11:18:27;;;;;;;11.20;8.27;;;12.90;99.90;;;;;;5034080;28;20121;-75
2022/01/01 11:20:53;;;;;;;12.52;8.30;;;12.90;99.90;;;;;;5054528;28;20025;-74
2022/01/01 11:23:20;;;;;;;10.45;7.65;;;12.90;99.90;;;;;;5048696;28;20088;-73
2022/01/01 11:25:46;;;;;;;8.38;7.45;;;12.90;99.90;;;;;;5049762;28;20028;-74
2022/01/01 11:28:15;;;;;;;10.32;7.63;;;13.00;99.90;;;;;;5028537;28;20553;-74
2022/01/01 11:30:57;;;;;;;10.27;7.72;;;13.00;99.90;;;;;;5061685;28;20033;-74
2022/01/01 11:33:36;;;;;;;10.50;8.25;;;13.10;99.90;;;;;;5058955;28;20048;-75
2022/01/01 11:36:03;;;;;;;11.30;8.00;;;13.20;99.90;;;;;;5063556;28;20031;-74
2022/01/01 11:38:31;;;;;;;10.27;8.70;;;13.20;99.90;;;;;;5068054;28;20404;-75
2022/01/01 11:41:04;;;;;;;11.77;8.73;;;13.30;99.90;;;;;;5037177;28;20021;-74
2022/01/01 11:43:43;;;;;;;11.48;8.88;;;13.30;99.90;;;;;;5055528;28;20033;-73
2022/01/01 11:46:16;;;;;;;9.23;8.32;;;13.30;99.90;;;;;;5055100;28;20070;-74
2022/01/01 11:48:51;;;;;;;10.85;8.90;;;13.40;99.90;;;;;;5052128;28;20484;-73
2022/01/01 11:51:44;;;;;;;8.68;7.88;;;13.40;99.90;;;;;;5054458;28;20025;-72
2022/01/01 11:54:22;;;;;;;10.63;8.43;;;13.40;99.90;;;;;;5056567;28;20064;-74
2022/01/01 11:56:48;;;;;;;9.27;8.35;;;13.50;99.90;;;;;;5055959;28;20020;-74
2022/01/01 11:59:21;;;;;;;10.45;8.30;;;13.50;99.90;;;;;;5070366;28;22368;-73
2022/01/01 12:01:48;;;;;;;10.90;8.88;;;13.50;99.90;;;;;;5064729;28;20087;-74
2022/01/01 12:04:33;;;;;;;10.05;8.75;;;13.50;99.90;;;;;;5057148;28;20060;-74
2022/01/01 12:07:11;;;;;;;10.20;9.02;;;13.60;99.90;;;;;;5059938;28;20059;-72
2022/01/01 12:10:01;;;;;;;14.20;9.35;;;13.60;99.90;;;;;;5073455;28;20032;-73
2022/01/01 12:12:38;;;;;;;9.80;8.23;;;13.60;99.90;;;;;;5063304;28;20476;-75
2022/01/01 12:15:23;;;;;;;9.68;8.27;;;13.60;99.90;;;;;;5068044;28;20105;-72
2022/01/01 12:18:01;;;;;;;10.93;9.05;;;13.60;99.90;;;;;;5077194;28;20032;-73
2022/01/01 12:20:56;;;;;;;9.73;8.73;;;13.60;99.90;;;;;;5077257;28;20021;-73
2022/01/01 12:23:25;;;;;;;9.38;7.90;;;13.60;99.90;;;;;;5077209;28;20100;-73
2022/01/01 12:25:53;;;;;;;10.05;8.45;;;13.60;99.90;;;;;;5082476;28;20037;-74
2022/01/01 12:28:28;;;;;;;10.00;8.30;;;13.50;99.90;;;;;;5082650;28;20022;-73
2022/01/01 12:31:03;;;;;;;8.23;7.35;;;13.60;99.90;;;;;;5083521;28;20028;-73
2022/01/01 12:33:38;;;;;;;8.73;7.57;;;13.70;99.90;;;;;;5072001;28;20024;-73
2022/01/01 12:36:07;;;;;;;9.32;7.95;;;13.70;99.90;;;;;;5063539;28;20492;-74
2022/01/01 12:38:34;;;;;;;9.50;7.28;;;13.60;99.90;;;;;;5066982;28;20040;-73
2022/01/01 12:41:08;;;;;;;9.25;7.97;;;13.60;99.90;;;;;;5069853;28;20028;-72
2022/01/01 12:43:47;;;;;;;8.57;7.60;;;13.60;99.90;;;;;;5053588;28;20411;-73
2022/01/01 12:46:14;;;;;;;9.30;7.25;;;13.60;99.90;;;;;;5061760;28;20029;-73